KFLO/FLO METAR and TAF weather

Enter ICAO airport designator
Station Type Date Time Source
KFLO METAR 2022/01/19 19:53 UTC NOAA

KFLO 191953Z 21010KT 10SM CLR 16/M03 A3019 RMK AO2 SLP223 T01611028


Station Type Date Time Source
KFLO Decoded METAR 2022/01/19 19:53 UTC NOAA

FLORENCE REGIONAL AIRPORT, SC, United States (KFLO) 34-11N 079-44W 44M
Jan 19, 2022 - 02:53 PM EST / 2022.01.19 1953 UTC
Wind: from the SSW (210 degrees) at 12 MPH (10 KT):0
Visibility: 10 mile(s):0
Sky conditions: clear
Temperature: 61.0 F (16.1 C)
Dew Point: 27.0 F (-2.8 C)
Relative Humidity: 27%
Pressure (altimeter): 30.19 in. Hg (1022 hPa)
ob: KFLO 191953Z 21010KT 10SM CLR 16/M03 A3019 RMK AO2 SLP223 T01611028
cycle: 20

Station Type Date Time Source
KFLO TAF 2022/01/19 18:27 UTC NOAA

TAF KFLO 191725Z 1918/2018 23010KT P6SM SCT200
FM192300 21005KT P6SM SCT200
FM201600 25008KT P6SM VCSH BKN070

Example: see airport list